createdAt,value
2022-10-28T00:00:40.434Z,38.23
2022-10-28T00:01:25.765Z,38.23
2022-10-28T00:02:10.593Z,38.23
2022-10-28T00:02:56.038Z,38.23
2022-10-28T00:03:40.588Z,38.23
2022-10-28T00:04:25.771Z,38.23
2022-10-28T00:05:10.763Z,38.23
2022-10-28T00:05:55.614Z,38.23
2022-10-28T00:06:40.900Z,38.23
2022-10-28T00:07:26.063Z,38.23
2022-10-28T00:08:11.193Z,38.23
2022-10-28T00:08:56.067Z,38.23
2022-10-28T00:09:40.997Z,38.23
2022-10-28T00:10:26.071Z,38.23
2022-10-28T00:11:11.117Z,38.23
2022-10-28T00:11:56.423Z,38.23
2022-10-28T00:12:41.115Z,38.23
2022-10-28T00:13:26.010Z,38.31
2022-10-28T00:14:11.238Z,38.23
2022-10-28T00:14:56.231Z,38.23
2022-10-28T00:15:41.238Z,38.23
2022-10-28T00:16:26.374Z,38.23
2022-10-28T00:17:11.337Z,38.23
2022-10-28T00:17:56.481Z,38.23
2022-10-28T00:18:41.364Z,38.23
2022-10-28T00:19:26.256Z,38.05
2022-10-28T00:20:11.269Z,38.23
2022-10-28T00:20:56.531Z,38.23
2022-10-28T00:21:41.596Z,38.23
2022-10-28T00:22:26.646Z,38.23
2022-10-28T00:23:12.114Z,38.23
2022-10-28T00:23:56.972Z,38.23
2022-10-28T00:24:42.120Z,38.23
2022-10-28T00:25:26.954Z,38.23
2022-10-28T00:26:12.238Z,38.23
2022-10-28T00:26:57.294Z,38.23
2022-10-28T00:27:42.350Z,38.23
2022-10-28T00:28:27.509Z,38.23
2022-10-28T00:29:12.473Z,38.23
2022-10-28T00:29:57.398Z,38.23
2022-10-28T00:30:42.470Z,38.23
2022-10-28T00:31:27.758Z,38.23
2022-10-28T00:32:12.552Z,38.23
2022-10-28T00:32:57.746Z,38.23
2022-10-28T00:33:42.905Z,38.23
2022-10-28T00:34:28.164Z,38.23
2022-10-28T00:35:12.909Z,38.23
2022-10-28T00:35:57.754Z,38.23
2022-10-28T00:36:43.126Z,38.23
2022-10-28T00:37:28.191Z,38.23
2022-10-28T00:38:13.236Z,38.23
2022-10-28T00:38:58.156Z,38.23
2022-10-28T00:39:43.043Z,38.23
2022-10-28T00:40:28.410Z,38.23
2022-10-28T00:41:13.502Z,38.23
2022-10-28T00:41:58.521Z,38.23
2022-10-28T00:42:43.478Z,38.23
2022-10-28T00:43:28.845Z,38.23
2022-10-28T00:44:13.702Z,38.23
2022-10-28T00:44:58.185Z,38.31
2022-10-28T00:45:43.410Z,38.05
2022-10-28T00:46:28.377Z,38.31
2022-10-28T00:47:13.300Z,38.23
2022-10-28T00:47:58.560Z,38.23
2022-10-28T00:48:43.648Z,38.23
2022-10-28T00:49:28.671Z,38.23
2022-10-28T00:50:13.935Z,38.23
2022-10-28T00:50:58.990Z,38.23
2022-10-28T00:51:43.743Z,38.23
2022-10-28T00:52:28.817Z,38.23
2022-10-28T00:53:13.808Z,38.23
2022-10-28T00:53:58.714Z,38.23
2022-10-28T00:54:43.668Z,38.23
2022-10-28T00:55:29.128Z,38.23
2022-10-28T00:56:14.324Z,38.23
2022-10-28T00:56:59.031Z,38.05
2022-10-28T00:57:43.896Z,38.23
2022-10-28T00:58:29.218Z,38.05
2022-10-28T00:59:14.715Z,38.23
2022-10-28T00:59:59.469Z,38.23
2022-10-28T01:00:44.210Z,38.23
2022-10-28T01:01:29.799Z,38.23
2022-10-28T01:02:15.346Z,38.23
2022-10-28T01:02:59.792Z,38.23
2022-10-28T01:03:44.549Z,38.23
2022-10-28T01:04:29.809Z,38.23
2022-10-28T01:05:14.965Z,38.23
2022-10-28T01:05:59.849Z,37.84
2022-10-28T01:06:45.176Z,38.23
2022-10-28T01:07:30.149Z,38.23
2022-10-28T01:08:15.190Z,38.23
2022-10-28T01:09:00.490Z,38.23
2022-10-28T01:09:45.403Z,38.23
2022-10-28T01:10:30.187Z,38.23
2022-10-28T01:11:15.308Z,38.23
2022-10-28T01:11:59.995Z,38.23
2022-10-28T01:12:45.531Z,38.23
2022-10-28T01:13:30.584Z,38.23
2022-10-28T01:14:15.436Z,38.23
2022-10-28T01:15:00.545Z,38.23
2022-10-28T01:15:45.758Z,37.84
2022-10-28T01:16:30.775Z,38.23
2022-10-28T01:17:15.867Z,38.23
2022-10-28T01:18:00.613Z,38.23
2022-10-28T01:18:45.900Z,38.23
2022-10-28T01:19:31.342Z,38.23
2022-10-28T01:20:15.989Z,38.23
2022-10-28T01:21:01.047Z,38.23
2022-10-28T01:21:45.881Z,38.23
2022-10-28T01:23:16.863Z,38.23
2022-10-28T01:24:00.911Z,38.23
2022-10-28T01:24:46.052Z,38.23
2022-10-28T01:25:31.412Z,38.23
2022-10-28T01:26:16.341Z,38.05
2022-10-28T01:27:01.310Z,38.31
2022-10-28T01:27:46.072Z,38.31
2022-10-28T01:28:31.614Z,38.31
2022-10-28T01:29:16.289Z,38.31
2022-10-28T01:30:01.417Z,38.31
2022-10-28T01:30:46.371Z,38.31
2022-10-28T01:31:31.326Z,38.31
2022-10-28T01:32:16.447Z,38.31
2022-10-28T01:33:01.664Z,38.31
2022-10-28T01:33:46.899Z,38.31
2022-10-28T01:34:31.855Z,38.31
2022-10-28T01:35:16.778Z,38.31
2022-10-28T01:36:02.070Z,38.31
2022-10-28T01:36:47.065Z,38.31
2022-10-28T01:37:32.186Z,38.31
2022-10-28T01:38:18.984Z,38.31
2022-10-28T01:39:02.725Z,38.31
2022-10-28T01:39:47.269Z,38.31
2022-10-28T01:40:32.205Z,38.38
2022-10-28T01:41:17.059Z,38.38
2022-10-28T01:42:02.418Z,38.38
2022-10-28T01:42:47.478Z,38.31
2022-10-28T01:43:32.372Z,38.31
2022-10-28T01:44:17.382Z,38.31
2022-10-28T01:45:02.193Z,38.31
2022-10-28T01:45:47.394Z,38.31
2022-10-28T01:46:32.866Z,38.31
2022-10-28T01:47:17.305Z,38.05
2022-10-28T01:48:02.781Z,38.23
2022-10-28T01:48:47.630Z,38.23
2022-10-28T01:49:32.696Z,38.31
2022-10-28T01:50:17.838Z,38.31
2022-10-28T01:51:02.689Z,38.31
2022-10-28T01:51:47.748Z,38.31
2022-10-28T01:52:33.109Z,38.23
2022-10-28T01:53:17.974Z,38.23
2022-10-28T01:54:02.879Z,38.05
2022-10-28T01:54:47.890Z,38.23
2022-10-28T01:55:32.932Z,38.23
2022-10-28T01:56:18.294Z,38.23
2022-10-28T01:57:03.423Z,21.48
2022-10-28T01:57:48.422Z,21.48
2022-10-28T01:58:33.560Z,21.48
2022-10-28T01:59:18.516Z,21.48
2022-10-28T02:00:03.683Z,21.48
2022-10-28T02:00:49.787Z,21.48
2022-10-28T02:01:34.027Z,21.48
2022-10-28T02:02:18.549Z,21.48
2022-10-28T02:03:03.906Z,21.48
2022-10-28T02:03:49.372Z,21.48
2022-10-28T02:04:34.114Z,21.48
2022-10-28T02:05:19.092Z,21.48
2022-10-28T02:06:04.342Z,21.48
2022-10-28T02:06:49.490Z,21.48
2022-10-28T02:07:33.722Z,38.31
2022-10-28T02:08:19.098Z,38.23
2022-10-28T02:09:04.144Z,38.23
2022-10-28T02:09:49.104Z,38.23
2022-10-28T02:10:34.160Z,38.23
2022-10-28T02:11:19.324Z,38.23
2022-10-28T02:12:04.578Z,38.23
2022-10-28T02:12:49.527Z,38.23
2022-10-28T02:13:34.275Z,22.61
2022-10-28T02:14:19.969Z,22.61
2022-10-28T02:15:04.936Z,22.61
2022-10-28T02:15:49.755Z,22.61
2022-10-28T02:16:35.018Z,22.61
2022-10-28T02:17:19.867Z,22.61
2022-10-28T02:18:05.030Z,22.61
2022-10-28T02:18:50.103Z,22.61
2022-10-28T02:19:35.143Z,22.61
2022-10-28T02:20:19.787Z,38.23
2022-10-28T02:21:04.943Z,38.15
2022-10-28T02:21:49.922Z,38.15
2022-10-28T02:22:35.056Z,38.15
2022-10-28T02:23:20.012Z,38.05
2022-10-28T02:24:04.739Z,38.05
2022-10-28T02:24:50.018Z,38.05
2022-10-28T02:25:35.288Z,37.72
2022-10-28T02:26:20.242Z,38.15
2022-10-28T02:27:05.089Z,37.72
2022-10-28T02:27:50.437Z,38.05
2022-10-28T02:28:35.404Z,38.05
2022-10-28T02:29:20.496Z,38.05
2022-10-28T02:30:05.226Z,38.05
2022-10-28T02:30:50.577Z,38.05
2022-10-28T02:31:35.226Z,38.05
2022-10-28T02:32:20.482Z,37.72
2022-10-28T02:33:05.550Z,38.05
2022-10-28T02:33:50.803Z,38.05
2022-10-28T02:34:35.826Z,37.72
2022-10-28T02:35:20.641Z,38.05
2022-10-28T02:36:05.797Z,37.72
2022-10-28T02:36:50.925Z,38.15
2022-10-28T02:37:36.206Z,38.15
2022-10-28T02:38:21.243Z,38.15
2022-10-28T02:39:06.210Z,38.23
2022-10-28T02:39:51.153Z,37.84
2022-10-28T02:40:36.000Z,38.23
2022-10-28T02:41:21.218Z,38.15
2022-10-28T02:42:06.219Z,38.15
2022-10-28T02:42:51.403Z,38.15
2022-10-28T02:43:36.332Z,37.72
2022-10-28T02:44:21.287Z,38.05
2022-10-28T02:45:06.133Z,38.05
2022-10-28T02:45:51.479Z,38.05
2022-10-28T02:46:36.558Z,38.05
2022-10-28T02:47:21.615Z,38.05
2022-10-28T02:48:06.561Z,38.05
2022-10-28T02:48:51.628Z,37.72
2022-10-28T02:49:36.503Z,38.05
2022-10-28T02:50:21.938Z,38.05
2022-10-28T02:51:06.890Z,38.05
2022-10-28T02:51:51.973Z,38.05
2022-10-28T02:52:37.111Z,38.05
2022-10-28T02:53:22.107Z,38.05
2022-10-28T02:54:06.893Z,38.05
2022-10-28T02:54:52.106Z,38.05
2022-10-28T02:55:37.439Z,38.05
2022-10-28T02:56:22.195Z,37.59
2022-10-28T02:57:07.143Z,38.05
2022-10-28T02:57:52.750Z,38.05
2022-10-28T02:58:37.305Z,38.05
2022-10-28T02:59:22.495Z,38.05
2022-10-28T03:00:07.741Z,38.05
2022-10-28T03:00:52.583Z,38.05
2022-10-28T03:01:37.969Z,37.84
2022-10-28T03:02:23.504Z,37.84
2022-10-28T03:03:07.617Z,38.05
2022-10-28T03:03:52.956Z,38.05
2022-10-28T03:04:38.524Z,37.84
2022-10-28T03:05:23.372Z,37.84
2022-10-28T03:06:07.916Z,38.05
2022-10-28T03:06:53.081Z,38.05
2022-10-28T03:07:38.022Z,38.05
2022-10-28T03:08:22.984Z,38.05
2022-10-28T03:09:07.945Z,38.05
2022-10-28T03:09:53.001Z,20.92
2022-10-28T03:10:38.442Z,20.92
2022-10-28T03:11:23.726Z,20.92
2022-10-28T03:12:08.785Z,20.92
2022-10-28T03:12:53.531Z,38.15
2022-10-28T03:13:38.382Z,38.15
2022-10-28T03:14:23.343Z,38.15
2022-10-28T03:15:08.324Z,38.15
2022-10-28T03:15:53.343Z,38.15
2022-10-28T03:16:38.613Z,38.05
2022-10-28T03:17:23.871Z,38.05
2022-10-28T03:18:08.501Z,38.05
2022-10-28T03:18:53.677Z,38.05
2022-10-28T03:19:38.831Z,37.59
2022-10-28T03:20:23.889Z,38.05
2022-10-28T03:21:08.961Z,37.72
2022-10-28T03:21:53.874Z,38.05
2022-10-28T03:22:39.158Z,38.05
2022-10-28T03:23:24.619Z,37.72
2022-10-28T03:24:09.068Z,38.05
2022-10-28T03:24:54.147Z,38.05
2022-10-28T03:25:39.291Z,38.05
2022-10-28T03:26:24.503Z,38.05
2022-10-28T03:27:09.503Z,38.15
2022-10-28T03:27:54.251Z,38.05
2022-10-28T03:28:39.521Z,38.05
2022-10-28T03:29:24.700Z,38.05
2022-10-28T03:30:09.723Z,38.15
2022-10-28T03:30:54.577Z,38.15
2022-10-28T03:31:39.610Z,38.15
2022-10-28T03:32:24.904Z,38.15
2022-10-28T03:33:09.488Z,37.84
2022-10-28T03:33:54.701Z,38.15
2022-10-28T03:34:39.857Z,38.15
2022-10-28T03:35:24.832Z,38.15
2022-10-28T03:36:09.762Z,38.15
2022-10-28T03:36:54.825Z,38.15
2022-10-28T03:37:40.083Z,38.15
2022-10-28T03:38:25.141Z,37.72
2022-10-28T03:39:10.095Z,38.15
2022-10-28T03:39:54.951Z,38.05
2022-10-28T03:40:40.109Z,38.05
2022-10-28T03:41:25.805Z,38.05
2022-10-28T03:42:10.337Z,38.05
2022-10-28T03:42:55.855Z,38.05
2022-10-28T03:43:40.949Z,38.05
2022-10-28T03:44:25.771Z,38.05
2022-10-28T03:45:10.574Z,38.05
2022-10-28T03:45:55.906Z,38.05
2022-10-28T03:46:40.551Z,38.05
2022-10-28T03:47:25.470Z,38.05
2022-10-28T03:48:10.545Z,38.05
2022-10-28T03:48:55.733Z,37.84
2022-10-28T03:49:40.885Z,37.84
2022-10-28T03:50:25.754Z,37.72
2022-10-28T03:51:11.011Z,37.30
2022-10-28T03:51:55.954Z,37.72
2022-10-28T03:52:40.920Z,37.72
2022-10-28T03:53:29.051Z,37.72
2022-10-28T03:54:11.439Z,37.72
2022-10-28T03:54:56.241Z,37.84
2022-10-28T03:55:41.336Z,37.84
2022-10-28T03:56:26.359Z,37.84
2022-10-28T03:57:11.610Z,37.84
2022-10-28T03:57:56.871Z,37.84
2022-10-28T03:58:41.935Z,37.84
2022-10-28T03:59:27.135Z,37.84
2022-10-28T04:00:13.744Z,37.84
2022-10-28T04:00:56.943Z,37.84
2022-10-28T04:01:42.243Z,37.84
2022-10-28T04:02:27.138Z,36.58
2022-10-28T04:03:11.591Z,37.84
2022-10-28T04:03:56.866Z,37.84
2022-10-28T04:04:41.793Z,34.82
2022-10-28T04:05:27.031Z,30.59
2022-10-28T04:06:11.817Z,24.30
2022-10-28T04:06:57.000Z,17.12
2022-10-28T04:07:42.444Z,17.12
2022-10-28T04:08:27.542Z,17.12
2022-10-28T04:09:12.371Z,33.85
2022-10-28T04:09:52.708Z,1055.59
2022-10-28T04:10:36.417Z,1079.84
2022-10-28T04:11:21.787Z,1109.92
2022-10-28T04:12:52.222Z,1132.23
2022-10-28T04:13:36.959Z,1125.44
2022-10-28T04:14:22.419Z,1122.03
2022-10-28T04:15:07.073Z,1138.61
2022-10-28T04:15:51.933Z,1140.57
2022-10-28T04:16:36.750Z,1136.38
2022-10-28T04:17:21.729Z,1143.88
2022-10-28T04:18:06.885Z,1091.89
2022-10-28T04:18:51.840Z,908.45
2022-10-28T04:19:37.205Z,1144.85
2022-10-28T04:20:22.074Z,1141.94
2022-10-28T04:21:06.956Z,1102.34
2022-10-28T04:21:51.961Z,1134.45
2022-10-28T04:22:37.227Z,1042.45
2022-10-28T04:23:22.174Z,1060.94
2022-10-28T04:24:07.336Z,1038.63
2022-10-28T04:24:52.294Z,1032.90
2022-10-28T04:25:37.347Z,1032.30
2022-10-28T04:26:22.644Z,1037.15
2022-10-28T04:27:07.771Z,1033.20
2022-10-28T04:27:53.162Z,1036.17
2022-10-28T04:28:37.684Z,1138.61
2022-10-28T04:29:22.507Z,1138.61
2022-10-28T04:30:07.790Z,1095.68
2022-10-28T04:30:52.754Z,1045.58
2022-10-28T04:31:38.006Z,1035.80
2022-10-28T04:32:23.104Z,1025.04
2022-10-28T04:33:08.341Z,1135.56
2022-10-28T04:33:52.900Z,1135.56
2022-10-28T04:34:38.030Z,1140.10
2022-10-28T04:35:23.177Z,1126.38
2022-10-28T04:36:08.236Z,1067.10
2022-10-28T04:36:53.506Z,1023.23
2022-10-28T04:37:38.258Z,1044.95
2022-10-28T04:39:08.467Z,1059.58
2022-10-28T04:39:53.374Z,1080.43
2022-10-28T04:40:38.379Z,1121.05
2022-10-28T04:41:23.737Z,1057.76
2022-10-28T04:42:08.794Z,1025.91
2022-10-28T04:42:53.876Z,1131.78
2022-10-28T04:43:38.293Z,1125.78
2022-10-28T04:44:23.683Z,1123.81
2022-10-28T04:45:08.875Z,1128.72
2022-10-28T04:45:53.870Z,1130.67
2022-10-28T04:46:39.135Z,1131.26
2022-10-28T04:47:23.984Z,1136.11
2022-10-28T04:48:08.938Z,1131.65
2022-10-28T04:48:54.325Z,1143.88
2022-10-28T04:49:39.250Z,1144.37
2022-10-28T04:50:24.275Z,1130.29
2022-10-28T04:51:09.265Z,1144.02
2022-10-28T04:51:54.274Z,1142.41
2022-10-28T04:52:39.488Z,1141.43
2022-10-28T04:53:24.521Z,1141.43
2022-10-28T04:54:09.283Z,1136.66
2022-10-28T04:54:54.547Z,1135.20
2022-10-28T04:55:39.607Z,1144.02
2022-10-28T04:56:24.864Z,1142.52
2022-10-28T04:57:09.923Z,1141.48
2022-10-28T04:57:54.667Z,1151.31
2022-10-28T04:58:39.664Z,1139.52
2022-10-28T04:59:24.881Z,1149.34
2022-10-28T05:00:09.609Z,1143.45
2022-10-28T05:00:54.793Z,1149.34
2022-10-28T05:01:40.189Z,1137.56
2022-10-28T05:02:25.053Z,1144.02
2022-10-28T05:03:09.758Z,1143.04
2022-10-28T05:03:54.812Z,1143.04
2022-10-28T05:04:40.104Z,1136.18
2022-10-28T05:05:25.755Z,1124.96
2022-10-28T05:06:10.314Z,1087.46
2022-10-28T05:06:55.286Z,1141.48
2022-10-28T05:07:40.509Z,1148.36
2022-10-28T05:08:25.795Z,1029.48
2022-10-28T05:09:10.595Z,1131.66
2022-10-28T05:09:55.568Z,1001.80
2022-10-28T05:10:40.629Z,912.81
2022-10-28T05:11:25.489Z,1104.47
2022-10-28T05:12:10.336Z,1141.48
2022-10-28T05:12:55.900Z,1135.20
2022-10-28T05:13:40.956Z,1139.12
2022-10-28T05:14:25.821Z,1107.98
2022-10-28T05:15:11.175Z,1135.56
2022-10-28T05:15:57.321Z,1135.56
2022-10-28T05:16:41.221Z,1142.06
2022-10-28T05:17:26.343Z,1142.06
2022-10-28T05:18:10.996Z,1130.81
2022-10-28T05:18:56.349Z,979.66
2022-10-28T05:19:41.307Z,979.66
2022-10-28T05:20:26.392Z,1010.42
2022-10-28T05:21:11.259Z,1012.25
2022-10-28T05:21:56.679Z,1067.11
2022-10-28T05:22:41.642Z,1060.99
2022-10-28T05:23:29.919Z,982.37
2022-10-28T05:24:11.539Z,1041.08
2022-10-28T05:24:56.392Z,1023.23
2022-10-28T05:25:41.668Z,965.19
2022-10-28T05:26:26.711Z,982.37
2022-10-28T05:27:11.563Z,980.21
2022-10-28T05:27:56.534Z,1048.28
2022-10-28T05:28:42.086Z,1021.51
2022-10-28T05:29:29.716Z,998.72
2022-10-28T05:30:11.899Z,1012.27
2022-10-28T05:30:56.947Z,1110.03
2022-10-28T05:31:42.003Z,1076.42
2022-10-28T05:32:27.369Z,1021.64
2022-10-28T05:33:12.401Z,1021.64
2022-10-28T05:33:57.304Z,1125.44
2022-10-28T05:34:42.129Z,1131.26
2022-10-28T05:35:27.599Z,1126.41
2022-10-28T05:36:12.361Z,1137.64
2022-10-28T05:36:57.502Z,1135.69
2022-10-28T05:37:42.457Z,1135.69
2022-10-28T05:38:27.359Z,1121.05
2022-10-28T05:39:12.669Z,1030.31
2022-10-28T05:39:57.632Z,1134.71
2022-10-28T05:40:42.817Z,1137.56
2022-10-28T05:41:27.785Z,1144.43
2022-10-28T05:42:12.794Z,1138.54
2022-10-28T05:42:57.897Z,1054.81
2022-10-28T05:43:42.807Z,1052.43
2022-10-28T05:44:27.962Z,1040.11
2022-10-28T05:45:12.810Z,1040.11
2022-10-28T05:45:57.975Z,1128.34
2022-10-28T05:46:43.025Z,1049.91
2022-10-28T05:47:28.237Z,1050.89
2022-10-28T05:48:13.041Z,1045.58
2022-10-28T05:48:58.303Z,1029.93
2022-10-28T05:49:43.359Z,1029.93
2022-10-28T05:50:28.310Z,1040.69
2022-10-28T05:51:13.060Z,1117.15
2022-10-28T05:51:58.286Z,1016.65
2022-10-28T05:52:43.478Z,1029.34
2022-10-28T05:53:28.606Z,1111.86
2022-10-28T05:54:13.339Z,1072.27
2022-10-28T05:54:58.653Z,1016.78
2022-10-28T05:55:46.816Z,1014.70
2022-10-28T05:56:28.965Z,1021.53
2022-10-28T05:57:13.720Z,1115.74
2022-10-28T05:57:58.568Z,1097.64
2022-10-28T05:58:43.533Z,1030.31
2022-10-28T05:59:29.398Z,1018.61
2022-10-28T06:00:13.904Z,1018.61
2022-10-28T06:00:59.003Z,1128.86
2022-10-28T06:01:44.327Z,1128.86
2022-10-28T06:02:29.213Z,1128.86
2022-10-28T06:03:14.006Z,1051.78
2022-10-28T06:04:00.381Z,1035.21
2022-10-28T06:04:44.182Z,1028.42
2022-10-28T06:05:29.444Z,1107.01
2022-10-28T06:06:13.953Z,1026.48
2022-10-28T06:06:59.393Z,1004.17
2022-10-28T06:07:44.303Z,1029.39
2022-10-28T06:08:29.679Z,1034.24
2022-10-28T06:09:14.416Z,1108.33
2022-10-28T06:09:59.951Z,1025.16
2022-10-28T06:10:45.143Z,1002.92
2022-10-28T06:11:28.155Z,1095.76
2022-10-28T06:12:13.114Z,1072.55
2022-10-28T06:12:58.061Z,1012.59
2022-10-28T06:13:43.428Z,1096.73
2022-10-28T06:14:28.277Z,761.46
2022-10-28T06:15:13.642Z,1115.74
2022-10-28T06:15:58.633Z,1111.86
2022-10-28T06:16:43.599Z,1110.27
2022-10-28T06:17:28.502Z,1116.71
2022-10-28T06:18:16.672Z,1118.65
2022-10-28T06:18:58.622Z,1113.80
2022-10-28T06:19:43.986Z,1109.30
2022-10-28T06:20:28.642Z,1111.23
2022-10-28T06:21:14.104Z,1112.20
2022-10-28T06:21:59.054Z,1107.98
2022-10-28T06:22:44.001Z,1115.74
2022-10-28T06:23:29.201Z,1107.01
2022-10-28T06:24:13.973Z,1113.80
2022-10-28T06:24:58.975Z,1119.62
2022-10-28T06:25:44.272Z,1112.83
2022-10-28T06:26:29.212Z,1105.07
2022-10-28T06:27:14.151Z,1115.74
2022-10-28T06:27:59.199Z,1101.56
2022-10-28T06:28:44.257Z,1106.40
2022-10-28T06:29:30.307Z,1014.52
2022-10-28T06:30:14.174Z,1014.52
2022-10-28T06:31:00.051Z,1123.50
2022-10-28T06:31:44.385Z,1129.32
2022-10-28T06:32:29.962Z,1126.41
2022-10-28T06:33:14.704Z,1126.71
2022-10-28T06:34:00.203Z,1125.74
2022-10-28T06:34:44.821Z,1121.87
2022-10-28T06:35:30.594Z,1130.58
2022-10-28T06:36:15.139Z,1129.61
2022-10-28T06:36:59.894Z,1116.07
2022-10-28T06:37:44.948Z,1118.00
2022-10-28T06:38:30.329Z,1127.38
2022-10-28T06:39:15.105Z,1129.32
2022-10-28T06:39:59.923Z,1130.29
2022-10-28T06:40:46.145Z,1129.32
2022-10-28T06:41:29.904Z,1129.32
2022-10-28T06:42:15.183Z,1124.47
2022-10-28T06:43:00.346Z,1118.97
2022-10-28T06:43:45.417Z,1061.91
2022-10-28T06:44:30.156Z,1123.81
2022-10-28T06:45:15.282Z,1127.68
2022-10-28T06:46:00.579Z,1118.00
2022-10-28T06:46:47.662Z,1118.00
2022-10-28T06:47:32.370Z,1117.04
2022-10-28T06:48:17.358Z,1112.20
2022-10-28T06:49:02.427Z,1106.40
2022-10-28T06:49:47.375Z,1018.72
2022-10-28T06:50:32.429Z,1108.18
2022-10-28T06:51:17.277Z,288.13
2022-10-28T06:52:02.853Z,288.13
2022-10-28T06:52:47.709Z,1128.72
2022-10-28T06:53:32.664Z,1119.92
2022-10-28T06:54:17.718Z,1025.44
2022-10-28T06:55:02.572Z,1102.51
2022-10-28T06:55:48.036Z,982.82
2022-10-28T06:56:32.782Z,1086.63
2022-10-28T06:57:17.742Z,1004.17
2022-10-28T06:58:03.130Z,1004.17
2022-10-28T06:58:48.056Z,1004.17
2022-10-28T06:59:33.215Z,1004.17
2022-10-28T07:00:18.358Z,1004.17
2022-10-28T07:01:03.290Z,1004.17
2022-10-28T07:01:48.500Z,1004.17
2022-10-28T07:02:33.382Z,1004.17
2022-10-28T07:03:18.378Z,1004.17
2022-10-28T07:04:03.483Z,1004.17
2022-10-28T07:04:48.409Z,1004.17
2022-10-28T07:05:33.467Z,1004.17
2022-10-28T07:06:18.625Z,1004.17
2022-10-28T07:07:03.505Z,1004.17
2022-10-28T07:07:48.859Z,1004.17
2022-10-28T07:08:33.933Z,1004.17
2022-10-28T07:09:18.654Z,1004.17
2022-10-28T07:10:04.129Z,1004.17
2022-10-28T07:10:49.173Z,1004.17
2022-10-28T07:11:34.226Z,1004.17
2022-10-28T07:13:04.442Z,1004.17
2022-10-28T07:13:49.300Z,1004.17
2022-10-28T07:14:34.456Z,1004.17
2022-10-28T07:15:19.919Z,1004.17
2022-10-28T07:16:05.703Z,1004.17
2022-10-28T07:16:50.752Z,1004.17
2022-10-28T07:17:34.315Z,1004.17
2022-10-28T07:18:19.536Z,1004.17
2022-10-28T07:19:04.623Z,1004.17
2022-10-28T07:19:49.653Z,1004.17
2022-10-28T07:20:34.816Z,1004.17
2022-10-28T07:21:19.832Z,1004.17
2022-10-28T07:22:05.031Z,1004.17
2022-10-28T07:22:49.877Z,1004.17
2022-10-28T07:23:36.574Z,1004.17
2022-10-28T07:24:20.732Z,1004.17
2022-10-28T07:25:05.135Z,1004.17
2022-10-28T07:25:50.258Z,1004.17
2022-10-28T07:26:35.373Z,1004.17
2022-10-28T07:27:20.324Z,1004.17
2022-10-28T07:28:05.349Z,1004.17
2022-10-28T07:28:51.868Z,1004.17
2022-10-28T07:29:35.494Z,1004.17
2022-10-28T07:30:20.347Z,1004.17
2022-10-28T07:31:05.536Z,1004.17
2022-10-28T07:31:50.505Z,1004.17
2022-10-28T07:32:35.537Z,1004.17
2022-10-28T07:33:20.056Z,1004.17
2022-10-28T07:34:05.529Z,1004.17
2022-10-28T07:34:50.621Z,1004.17
2022-10-28T07:35:35.504Z,419.45
2022-10-28T07:36:20.796Z,419.45
2022-10-28T07:37:05.970Z,419.45
2022-10-28T07:37:50.727Z,419.45
2022-10-28T07:38:35.975Z,419.45
2022-10-28T07:39:20.721Z,419.45
2022-10-28T07:40:06.187Z,419.45
2022-10-28T07:40:51.250Z,419.45
2022-10-28T07:41:36.090Z,419.45
2022-10-28T07:42:21.253Z,419.45
2022-10-28T07:43:06.327Z,419.45
2022-10-28T07:43:50.951Z,419.45
2022-10-28T07:44:36.137Z,419.45
2022-10-28T07:45:20.862Z,419.45
2022-10-28T07:46:08.033Z,383.76
2022-10-28T07:46:53.025Z,404.51
2022-10-28T07:47:36.156Z,307.06
2022-10-28T07:48:21.432Z,307.06
2022-10-28T07:49:06.454Z,307.06
2022-10-28T07:49:51.224Z,307.06
2022-10-28T07:50:36.714Z,307.06
2022-10-28T07:51:21.617Z,307.06
2022-10-28T07:52:06.706Z,307.06
2022-10-28T07:52:51.964Z,307.06
2022-10-28T07:53:36.787Z,307.06
2022-10-28T07:54:21.641Z,307.06
2022-10-28T07:55:06.899Z,307.06
2022-10-28T07:55:52.063Z,307.06
2022-10-28T07:56:37.071Z,307.06
2022-10-28T07:57:21.761Z,307.06
2022-10-28T07:58:07.238Z,307.06
2022-10-28T07:58:52.079Z,307.06
2022-10-28T07:59:37.027Z,1060.09
2022-10-28T08:00:21.795Z,1060.09
2022-10-28T08:01:08.427Z,1060.09
2022-10-28T08:01:52.447Z,1060.09
2022-10-28T08:02:37.398Z,1060.09
2022-10-28T08:03:22.102Z,1060.09
2022-10-28T08:04:06.952Z,422.12
2022-10-28T08:04:52.108Z,422.12
2022-10-28T08:05:37.272Z,422.12
2022-10-28T08:06:22.148Z,422.12
2022-10-28T08:07:07.378Z,1084.69
2022-10-28T08:07:52.393Z,1111.23
2022-10-28T08:08:37.286Z,951.16
2022-10-28T08:09:22.536Z,951.16
2022-10-28T08:10:08.069Z,1122.53
2022-10-28T08:10:52.751Z,1120.91
2022-10-28T08:11:37.604Z,1031.93
2022-10-28T08:12:22.686Z,1118.00
2022-10-28T08:13:07.985Z,1114.14
2022-10-28T08:13:52.569Z,1118.00
2022-10-28T08:14:37.628Z,1117.04
2022-10-28T08:15:22.978Z,1112.20
2022-10-28T08:16:08.446Z,1112.20
2022-10-28T08:16:52.989Z,1117.04
2022-10-28T08:17:37.845Z,1112.20
2022-10-28T08:18:23.001Z,1112.20
2022-10-28T08:19:08.259Z,1105.43
2022-10-28T08:19:53.316Z,1105.43
2022-10-28T08:20:38.236Z,1024.04
2022-10-28T08:21:23.139Z,1107.37
2022-10-28T08:22:08.276Z,1118.00
2022-10-28T08:22:53.377Z,1116.07
2022-10-28T08:23:38.492Z,1096.73
2022-10-28T08:24:23.478Z,1027.09
2022-10-28T08:25:08.605Z,1116.07
2022-10-28T08:25:53.668Z,1048.37
2022-10-28T08:26:38.616Z,943.92
2022-10-28T08:27:23.678Z,1086.09
2022-10-28T08:28:08.544Z,1093.83
2022-10-28T08:28:53.579Z,831.73
2022-10-28T08:29:38.652Z,1072.55
2022-10-28T08:30:24.131Z,727.28
2022-10-28T08:31:09.523Z,564.81
2022-10-28T08:31:53.903Z,1075.45
2022-10-28T08:32:39.087Z,794.98
2022-10-28T08:33:23.625Z,1088.02
2022-10-28T08:34:08.971Z,1088.02
2022-10-28T08:34:53.932Z,1057.08
2022-10-28T08:35:39.082Z,1048.37
2022-10-28T08:36:24.094Z,1071.58
2022-10-28T08:37:09.504Z,1071.58
2022-10-28T08:37:54.451Z,1090.52
2022-10-28T08:38:44.956Z,1090.52
2022-10-28T08:39:25.020Z,1090.52
2022-10-28T08:40:10.139Z,1090.52
2022-10-28T08:40:54.898Z,1082.75
2022-10-28T08:41:40.166Z,1082.75
2022-10-28T08:42:25.016Z,1084.69
2022-10-28T08:43:09.956Z,1089.96
2022-10-28T08:43:57.757Z,1089.96
2022-10-28T08:44:40.149Z,1089.96
2022-10-28T08:45:25.576Z,1089.96
2022-10-28T08:46:10.387Z,1089.96
2022-10-28T08:46:55.246Z,1089.96
2022-10-28T08:47:40.332Z,319.52
2022-10-28T08:48:26.080Z,319.52
2022-10-28T08:49:10.719Z,319.52
2022-10-28T08:49:55.573Z,319.52
2022-10-28T08:50:40.627Z,319.52
2022-10-28T08:51:25.848Z,319.52
2022-10-28T08:52:10.845Z,319.52
2022-10-28T08:52:56.171Z,319.52
2022-10-28T08:53:40.679Z,319.52
2022-10-28T08:54:25.844Z,319.52
2022-10-28T08:55:11.018Z,319.52
2022-10-28T08:55:55.931Z,319.52
2022-10-28T08:56:40.873Z,319.52
2022-10-28T08:57:26.239Z,319.52
2022-10-28T08:58:10.749Z,1103.13
2022-10-28T08:58:56.145Z,1093.43
2022-10-28T08:59:41.201Z,1097.31
2022-10-28T09:00:26.569Z,1097.31
2022-10-28T09:01:11.267Z,1092.46
2022-10-28T09:02:41.078Z,1045.47
2022-10-28T09:03:26.487Z,1045.47
2022-10-28T09:04:11.850Z,1045.47
2022-10-28T09:04:56.037Z,1096.34
2022-10-28T09:05:41.382Z,1090.93
2022-10-28T09:06:26.500Z,1025.16
2022-10-28T09:07:11.360Z,974.87
2022-10-28T09:07:56.413Z,1098.66
2022-10-28T09:08:41.681Z,1103.50
2022-10-28T09:09:26.778Z,1108.33
2022-10-28T09:10:11.666Z,1074.48
2022-10-28T09:10:56.639Z,1105.43
2022-10-28T09:11:41.800Z,1105.43
2022-10-28T09:12:26.522Z,1106.40
2022-10-28T09:13:11.641Z,1111.23
2022-10-28T09:13:56.647Z,1111.23
2022-10-28T09:14:42.123Z,1115.10
2022-10-28T09:15:27.540Z,1103.50
2022-10-28T09:16:13.731Z,1111.23
2022-10-28T09:16:57.207Z,1115.10
2022-10-28T09:17:42.249Z,1105.43
2022-10-28T09:18:27.440Z,1088.99
2022-10-28T09:19:12.181Z,1088.99
2022-10-28T09:19:57.720Z,1106.40
2022-10-28T09:20:42.167Z,1111.23
2022-10-28T09:21:27.751Z,1104.46
2022-10-28T09:22:13.742Z,1110.27
2022-10-28T09:22:57.927Z,1104.46
2022-10-28T09:23:43.014Z,1118.97
2022-10-28T09:24:27.821Z,1115.10
2022-10-28T09:25:12.509Z,1118.97
2022-10-28T09:25:57.796Z,1119.94